sensor_id;sensor_type;location;lat;lon;timestamp;P1;durP1;ratioP1;P2;durP2;ratioP2
49384;SDS011;36795;45.028;38.968;2023-03-13T00:01:30;17.95;;;5.30;;
49384;SDS011;36795;45.028;38.968;2023-03-13T00:04:17;18.90;;;5.40;;
49384;SDS011;36795;45.028;38.968;2023-03-13T00:07:03;17.23;;;5.12;;
49384;SDS011;36795;45.028;38.968;2023-03-13T00:09:50;18.77;;;5.43;;
49384;SDS011;36795;45.028;38.968;2023-03-13T00:12:36;19.15;;;5.40;;
49384;SDS011;36795;45.028;38.968;2023-03-13T00:15:22;18.52;;;4.60;;
49384;SDS011;36795;45.028;38.968;2023-03-13T00:18:08;18.87;;;5.20;;
49384;SDS011;36795;45.028;38.968;2023-03-13T00:21:02;18.40;;;5.00;;
49384;SDS011;36795;45.028;38.968;2023-03-13T00:23:48;16.23;;;5.60;;
49384;SDS011;36795;45.028;38.968;2023-03-13T00:26:35;18.73;;;5.18;;
49384;SDS011;36795;45.028;38.968;2023-03-13T00:29:21;15.10;;;4.60;;
49384;SDS011;36795;45.028;38.968;2023-03-13T00:32:08;16.55;;;4.97;;
49384;SDS011;36795;45.028;38.968;2023-03-13T00:34:54;16.45;;;4.78;;
49384;SDS011;36795;45.028;38.968;2023-03-13T00:37:41;16.30;;;5.07;;
49384;SDS011;36795;45.028;38.968;2023-03-13T00:40:27;17.10;;;5.03;;
49384;SDS011;36795;45.028;38.968;2023-03-13T00:43:13;15.20;;;4.43;;
49384;SDS011;36795;45.028;38.968;2023-03-13T00:45:59;14.80;;;4.62;;
49384;SDS011;36795;45.028;38.968;2023-03-13T00:48:46;18.62;;;4.43;;
49384;SDS011;36795;45.028;38.968;2023-03-13T00:51:32;17.52;;;4.93;;
49384;SDS011;36795;45.028;38.968;2023-03-13T00:54:19;16.85;;;4.57;;
49384;SDS011;36795;45.028;38.968;2023-03-13T00:57:05;14.25;;;4.80;;
49384;SDS011;36795;45.028;38.968;2023-03-13T00:59:52;16.95;;;4.32;;
49384;SDS011;36795;45.028;38.968;2023-03-13T01:02:41;18.23;;;5.30;;
49384;SDS011;36795;45.028;38.968;2023-03-13T01:05:28;15.95;;;4.60;;
49384;SDS011;36795;45.028;38.968;2023-03-13T01:08:16;14.43;;;4.35;;
49384;SDS011;36795;45.028;38.968;2023-03-13T01:11:08;16.25;;;4.72;;
49384;SDS011;36795;45.028;38.968;2023-03-13T01:13:56;15.38;;;4.75;;
49384;SDS011;36795;45.028;38.968;2023-03-13T01:16:44;16.77;;;5.05;;
49384;SDS011;36795;45.028;38.968;2023-03-13T01:19:30;15.90;;;4.85;;
49384;SDS011;36795;45.028;38.968;2023-03-13T01:22:17;17.85;;;4.62;;
49384;SDS011;36795;45.028;38.968;2023-03-13T01:25:03;14.87;;;4.62;;
49384;SDS011;36795;45.028;38.968;2023-03-13T01:27:50;16.23;;;4.93;;
49384;SDS011;36795;45.028;38.968;2023-03-13T01:30:36;13.77;;;4.40;;
49384;SDS011;36795;45.028;38.968;2023-03-13T01:33:22;17.67;;;5.53;;
49384;SDS011;36795;45.028;38.968;2023-03-13T01:36:08;17.45;;;5.03;;
49384;SDS011;36795;45.028;38.968;2023-03-13T01:38:55;17.70;;;5.18;;
49384;SDS011;36795;45.028;38.968;2023-03-13T01:41:41;18.83;;;5.57;;
49384;SDS011;36795;45.028;38.968;2023-03-13T01:44:28;21.17;;;5.90;;
49384;SDS011;36795;45.028;38.968;2023-03-13T01:47:15;18.42;;;5.80;;
49384;SDS011;36795;45.028;38.968;2023-03-13T01:50:03;18.23;;;6.50;;
49384;SDS011;36795;45.028;38.968;2023-03-13T01:52:50;20.95;;;7.30;;
49384;SDS011;36795;45.028;38.968;2023-03-13T01:55:37;20.62;;;7.55;;
49384;SDS011;36795;45.028;38.968;2023-03-13T01:58:23;21.15;;;7.37;;
49384;SDS011;36795;45.028;38.968;2023-03-13T02:01:10;20.48;;;7.70;;
49384;SDS011;36795;45.028;38.968;2023-03-13T02:03:58;19.08;;;7.12;;
49384;SDS011;36795;45.028;38.968;2023-03-13T02:06:45;20.17;;;7.60;;
49384;SDS011;36795;45.028;38.968;2023-03-13T02:09:33;20.98;;;7.87;;
49384;SDS011;36795;45.028;38.968;2023-03-13T02:12:26;20.10;;;7.50;;
49384;SDS011;36795;45.028;38.968;2023-03-13T02:15:15;20.27;;;7.25;;
49384;SDS011;36795;45.028;38.968;2023-03-13T02:18:01;20.60;;;7.78;;
49384;SDS011;36795;45.028;38.968;2023-03-13T02:20:48;21.67;;;8.05;;
49384;SDS011;36795;45.028;38.968;2023-03-13T02:23:41;19.77;;;7.80;;
49384;SDS011;36795;45.028;38.968;2023-03-13T02:26:30;19.98;;;7.47;;
49384;SDS011;36795;45.028;38.968;2023-03-13T02:29:16;19.48;;;7.45;;
49384;SDS011;36795;45.028;38.968;2023-03-13T02:32:03;21.20;;;7.62;;
49384;SDS011;36795;45.028;38.968;2023-03-13T02:34:50;21.58;;;7.55;;
49384;SDS011;36795;45.028;38.968;2023-03-13T02:37:39;18.58;;;6.82;;
49384;SDS011;36795;45.028;38.968;2023-03-13T02:40:32;19.33;;;7.05;;
49384;SDS011;36795;45.028;38.968;2023-03-13T02:43:34;20.75;;;7.35;;
49384;SDS011;36795;45.028;38.968;2023-03-13T02:46:20;18.95;;;6.75;;
49384;SDS011;36795;45.028;38.968;2023-03-13T02:49:21;19.48;;;6.78;;
49384;SDS011;36795;45.028;38.968;2023-03-13T02:52:22;19.33;;;7.03;;
49384;SDS011;36795;45.028;38.968;2023-03-13T02:55:14;19.30;;;7.82;;
49384;SDS011;36795;45.028;38.968;2023-03-13T02:58:02;19.75;;;6.78;;
49384;SDS011;36795;45.028;38.968;2023-03-13T03:00:51;20.88;;;7.00;;
49384;SDS011;36795;45.028;38.968;2023-03-13T03:03:38;18.75;;;6.75;;
49384;SDS011;36795;45.028;38.968;2023-03-13T03:06:25;20.35;;;7.50;;
49384;SDS011;36795;45.028;38.968;2023-03-13T03:09:12;20.30;;;7.10;;
49384;SDS011;36795;45.028;38.968;2023-03-13T03:11:59;18.87;;;6.87;;
49384;SDS011;36795;45.028;38.968;2023-03-13T03:14:44;20.27;;;7.20;;
49384;SDS011;36795;45.028;38.968;2023-03-13T03:17:32;20.05;;;7.35;;
49384;SDS011;36795;45.028;38.968;2023-03-13T03:20:18;18.42;;;6.93;;
49384;SDS011;36795;45.028;38.968;2023-03-13T03:23:05;20.08;;;6.75;;
49384;SDS011;36795;45.028;38.968;2023-03-13T03:25:51;19.73;;;7.00;;
49384;SDS011;36795;45.028;38.968;2023-03-13T03:28:38;18.83;;;6.50;;
49384;SDS011;36795;45.028;38.968;2023-03-13T03:31:24;20.00;;;6.55;;
49384;SDS011;36795;45.028;38.968;2023-03-13T03:34:12;20.48;;;6.93;;
49384;SDS011;36795;45.028;38.968;2023-03-13T03:36:59;19.92;;;7.25;;
49384;SDS011;36795;45.028;38.968;2023-03-13T03:39:45;20.40;;;7.07;;
49384;SDS011;36795;45.028;38.968;2023-03-13T03:42:32;18.02;;;6.53;;
49384;SDS011;36795;45.028;38.968;2023-03-13T03:45:19;20.67;;;7.32;;
49384;SDS011;36795;45.028;38.968;2023-03-13T03:48:05;21.23;;;7.82;;
49384;SDS011;36795;45.028;38.968;2023-03-13T03:50:51;19.67;;;6.50;;
49384;SDS011;36795;45.028;38.968;2023-03-13T03:53:38;20.85;;;7.93;;
49384;SDS011;36795;45.028;38.968;2023-03-13T03:56:24;17.77;;;6.40;;
49384;SDS011;36795;45.028;38.968;2023-03-13T03:59:11;19.15;;;7.00;;
49384;SDS011;36795;45.028;38.968;2023-03-13T04:01:58;19.27;;;6.80;;
49384;SDS011;36795;45.028;38.968;2023-03-13T04:04:45;19.95;;;7.40;;
49384;SDS011;36795;45.028;38.968;2023-03-13T04:07:32;18.62;;;6.90;;
49384;SDS011;36795;45.028;38.968;2023-03-13T04:10:18;19.15;;;6.32;;
49384;SDS011;36795;45.028;38.968;2023-03-13T04:13:06;18.27;;;6.70;;
49384;SDS011;36795;45.028;38.968;2023-03-13T04:15:52;17.73;;;6.30;;
49384;SDS011;36795;45.028;38.968;2023-03-13T04:18:38;19.52;;;6.93;;
49384;SDS011;36795;45.028;38.968;2023-03-13T04:21:26;20.50;;;6.85;;
49384;SDS011;36795;45.028;38.968;2023-03-13T04:24:12;36.70;;;21.48;;
49384;SDS011;36795;45.028;38.968;2023-03-13T04:26:59;18.98;;;6.35;;
49384;SDS011;36795;45.028;38.968;2023-03-13T04:29:47;18.70;;;6.30;;
49384;SDS011;36795;45.028;38.968;2023-03-13T04:32:36;18.23;;;6.37;;
49384;SDS011;36795;45.028;38.968;2023-03-13T04:35:22;17.40;;;5.72;;
49384;SDS011;36795;45.028;38.968;2023-03-13T04:38:09;18.15;;;6.05;;
49384;SDS011;36795;45.028;38.968;2023-03-13T04:40:55;17.60;;;5.85;;
49384;SDS011;36795;45.028;38.968;2023-03-13T04:43:45;17.73;;;6.05;;
49384;SDS011;36795;45.028;38.968;2023-03-13T04:46:31;17.67;;;6.07;;
49384;SDS011;36795;45.028;38.968;2023-03-13T04:49:18;19.80;;;6.90;;
49384;SDS011;36795;45.028;38.968;2023-03-13T04:52:04;17.60;;;5.90;;
49384;SDS011;36795;45.028;38.968;2023-03-13T04:54:51;15.90;;;5.60;;
49384;SDS011;36795;45.028;38.968;2023-03-13T04:57:37;15.98;;;5.37;;
49384;SDS011;36795;45.028;38.968;2023-03-13T05:00:24;19.05;;;6.00;;
49384;SDS011;36795;45.028;38.968;2023-03-13T05:03:10;18.12;;;6.03;;
49384;SDS011;36795;45.028;38.968;2023-03-13T05:05:57;16.25;;;5.50;;
49384;SDS011;36795;45.028;38.968;2023-03-13T05:08:43;16.20;;;5.50;;
49384;SDS011;36795;45.028;38.968;2023-03-13T05:11:29;22.10;;;7.97;;
49384;SDS011;36795;45.028;38.968;2023-03-13T05:14:15;17.17;;;5.62;;
49384;SDS011;36795;45.028;38.968;2023-03-13T05:17:04;17.75;;;5.60;;
49384;SDS011;36795;45.028;38.968;2023-03-13T05:19:50;14.82;;;5.20;;
49384;SDS011;36795;45.028;38.968;2023-03-13T05:22:37;16.33;;;5.40;;
49384;SDS011;36795;45.028;38.968;2023-03-13T05:25:24;20.05;;;5.85;;
49384;SDS011;36795;45.028;38.968;2023-03-13T05:28:11;15.02;;;5.32;;
49384;SDS011;36795;45.028;38.968;2023-03-13T05:30:59;19.10;;;6.15;;
49384;SDS011;36795;45.028;38.968;2023-03-13T05:33:49;16.37;;;4.85;;
49384;SDS011;36795;45.028;38.968;2023-03-13T05:36:35;15.30;;;4.80;;
49384;SDS011;36795;45.028;38.968;2023-03-13T05:39:21;15.32;;;5.10;;
49384;SDS011;36795;45.028;38.968;2023-03-13T05:42:08;14.52;;;4.85;;
49384;SDS011;36795;45.028;38.968;2023-03-13T05:44:54;15.07;;;4.93;;
49384;SDS011;36795;45.028;38.968;2023-03-13T05:47:42;13.35;;;4.80;;
49384;SDS011;36795;45.028;38.968;2023-03-13T05:50:28;15.25;;;5.12;;
49384;SDS011;36795;45.028;38.968;2023-03-13T05:53:15;15.63;;;4.95;;
49384;SDS011;36795;45.028;38.968;2023-03-13T05:56:02;15.20;;;4.87;;
49384;SDS011;36795;45.028;38.968;2023-03-13T05:58:50;15.35;;;4.85;;
49384;SDS011;36795;45.028;38.968;2023-03-13T06:01:39;14.45;;;4.93;;
49384;SDS011;36795;45.028;38.968;2023-03-13T06:04:26;17.62;;;5.20;;
49384;SDS011;36795;45.028;38.968;2023-03-13T06:07:12;23.87;;;6.00;;
49384;SDS011;36795;45.028;38.968;2023-03-13T06:09:59;19.80;;;5.47;;
49384;SDS011;36795;45.028;38.968;2023-03-13T06:12:51;17.17;;;5.65;;
49384;SDS011;36795;45.028;38.968;2023-03-13T06:15:39;17.77;;;5.40;;
49384;SDS011;36795;45.028;38.968;2023-03-13T06:18:25;15.98;;;4.53;;
49384;SDS011;36795;45.028;38.968;2023-03-13T06:21:12;18.48;;;4.80;;
49384;SDS011;36795;45.028;38.968;2023-03-13T06:23:58;16.80;;;5.60;;
49384;SDS011;36795;45.028;38.968;2023-03-13T06:26:46;20.00;;;5.47;;
49384;SDS011;36795;45.028;38.968;2023-03-13T06:29:33;20.85;;;5.75;;
49384;SDS011;36795;45.028;38.968;2023-03-13T06:32:19;19.10;;;6.07;;
49384;SDS011;36795;45.028;38.968;2023-03-13T06:35:05;19.85;;;5.55;;
49384;SDS011;36795;45.028;38.968;2023-03-13T06:37:52;17.87;;;5.82;;
49384;SDS011;36795;45.028;38.968;2023-03-13T06:40:38;16.62;;;5.82;;
49384;SDS011;36795;45.028;38.968;2023-03-13T06:43:24;18.37;;;5.60;;
49384;SDS011;36795;45.028;38.968;2023-03-13T06:46:18;17.92;;;5.20;;
49384;SDS011;36795;45.028;38.968;2023-03-13T06:49:04;17.08;;;5.20;;
49384;SDS011;36795;45.028;38.968;2023-03-13T06:51:50;19.08;;;6.43;;
49384;SDS011;36795;45.028;38.968;2023-03-13T06:54:38;20.35;;;6.05;;
49384;SDS011;36795;45.028;38.968;2023-03-13T06:57:24;18.48;;;5.82;;
49384;SDS011;36795;45.028;38.968;2023-03-13T07:00:10;17.80;;;5.72;;
49384;SDS011;36795;45.028;38.968;2023-03-13T07:02:56;23.15;;;6.28;;
49384;SDS011;36795;45.028;38.968;2023-03-13T07:05:43;20.02;;;5.75;;
49384;SDS011;36795;45.028;38.968;2023-03-13T07:08:28;19.92;;;5.45;;
49384;SDS011;36795;45.028;38.968;2023-03-13T07:11:15;16.92;;;5.10;;
49384;SDS011;36795;45.028;38.968;2023-03-13T07:14:01;24.15;;;6.30;;
49384;SDS011;36795;45.028;38.968;2023-03-13T07:16:47;19.12;;;5.80;;
49384;SDS011;36795;45.028;38.968;2023-03-13T07:19:33;17.25;;;5.28;;
49384;SDS011;36795;45.028;38.968;2023-03-13T07:22:19;22.45;;;5.95;;
49384;SDS011;36795;45.028;38.968;2023-03-13T07:25:05;19.42;;;5.80;;
49384;SDS011;36795;45.028;38.968;2023-03-13T07:27:52;18.05;;;5.50;;
49384;SDS011;36795;45.028;38.968;2023-03-13T07:30:38;21.65;;;6.30;;
49384;SDS011;36795;45.028;38.968;2023-03-13T07:33:25;21.48;;;6.00;;
49384;SDS011;36795;45.028;38.968;2023-03-13T07:36:13;18.40;;;5.57;;
49384;SDS011;36795;45.028;38.968;2023-03-13T07:39:08;18.52;;;5.00;;
49384;SDS011;36795;45.028;38.968;2023-03-13T07:41:54;16.87;;;5.35;;
49384;SDS011;36795;45.028;38.968;2023-03-13T07:44:40;21.12;;;5.18;;
49384;SDS011;36795;45.028;38.968;2023-03-13T07:47:26;16.23;;;4.90;;
49384;SDS011;36795;45.028;38.968;2023-03-13T07:50:13;18.85;;;5.32;;
49384;SDS011;36795;45.028;38.968;2023-03-13T07:52:59;15.63;;;4.65;;
49384;SDS011;36795;45.028;38.968;2023-03-13T07:55:55;16.95;;;4.35;;
49384;SDS011;36795;45.028;38.968;2023-03-13T07:58:41;17.60;;;4.80;;
49384;SDS011;36795;45.028;38.968;2023-03-13T08:01:28;12.52;;;4.18;;
49384;SDS011;36795;45.028;38.968;2023-03-13T08:04:14;16.48;;;4.47;;
49384;SDS011;36795;45.028;38.968;2023-03-13T08:07:00;16.60;;;4.32;;
49384;SDS011;36795;45.028;38.968;2023-03-13T08:09:47;17.10;;;4.40;;
49384;SDS011;36795;45.028;38.968;2023-03-13T08:12:32;20.35;;;5.05;;
49384;SDS011;36795;45.028;38.968;2023-03-13T08:15:19;24.48;;;6.32;;
49384;SDS011;36795;45.028;38.968;2023-03-13T08:18:10;20.92;;;6.18;;
49384;SDS011;36795;45.028;38.968;2023-03-13T08:20:59;14.70;;;3.85;;
49384;SDS011;36795;45.028;38.968;2023-03-13T08:23:46;14.45;;;4.32;;
49384;SDS011;36795;45.028;38.968;2023-03-13T08:26:33;16.40;;;4.30;;
49384;SDS011;36795;45.028;38.968;2023-03-13T08:29:19;17.92;;;4.65;;
49384;SDS011;36795;45.028;38.968;2023-03-13T08:32:05;15.50;;;3.78;;
49384;SDS011;36795;45.028;38.968;2023-03-13T08:34:51;21.20;;;4.72;;
49384;SDS011;36795;45.028;38.968;2023-03-13T08:37:38;16.95;;;4.12;;
49384;SDS011;36795;45.028;38.968;2023-03-13T08:40:24;12.75;;;3.20;;
49384;SDS011;36795;45.028;38.968;2023-03-13T08:43:10;10.80;;;3.40;;
49384;SDS011;36795;45.028;38.968;2023-03-13T08:45:57;11.48;;;3.10;;
49384;SDS011;36795;45.028;38.968;2023-03-13T08:48:43;11.20;;;3.08;;
49384;SDS011;36795;45.028;38.968;2023-03-13T08:51:29;18.83;;;7.93;;
49384;SDS011;36795;45.028;38.968;2023-03-13T08:54:16;15.70;;;4.72;;
49384;SDS011;36795;45.028;38.968;2023-03-13T08:57:02;12.63;;;3.30;;
49384;SDS011;36795;45.028;38.968;2023-03-13T08:59:48;14.93;;;3.10;;
49384;SDS011;36795;45.028;38.968;2023-03-13T09:02:35;21.02;;;4.82;;
49384;SDS011;36795;45.028;38.968;2023-03-13T09:05:21;10.60;;;3.20;;
49384;SDS011;36795;45.028;38.968;2023-03-13T09:08:07;11.93;;;3.00;;
49384;SDS011;36795;45.028;38.968;2023-03-13T09:11:03;8.68;;;2.60;;
49384;SDS011;36795;45.028;38.968;2023-03-13T09:13:50;9.52;;;3.10;;
49384;SDS011;36795;45.028;38.968;2023-03-13T09:16:37;10.05;;;2.58;;
49384;SDS011;36795;45.028;38.968;2023-03-13T09:19:23;16.25;;;2.85;;
49384;SDS011;36795;45.028;38.968;2023-03-13T09:22:09;13.18;;;2.90;;
49384;SDS011;36795;45.028;38.968;2023-03-13T09:24:55;17.75;;;3.58;;
49384;SDS011;36795;45.028;38.968;2023-03-13T09:27:42;18.83;;;3.80;;
49384;SDS011;36795;45.028;38.968;2023-03-13T09:30:28;15.32;;;3.22;;
49384;SDS011;36795;45.028;38.968;2023-03-13T09:33:18;13.93;;;3.33;;
49384;SDS011;36795;45.028;38.968;2023-03-13T09:36:05;8.55;;;2.90;;
49384;SDS011;36795;45.028;38.968;2023-03-13T09:38:52;8.57;;;2.90;;
49384;SDS011;36795;45.028;38.968;2023-03-13T09:41:52;16.98;;;3.92;;
49384;SDS011;36795;45.028;38.968;2023-03-13T09:45:28;14.20;;;3.08;;
49384;SDS011;36795;45.028;38.968;2023-03-13T09:47:51;15.63;;;3.65;;
49384;SDS011;36795;45.028;38.968;2023-03-13T09:50:41;12.18;;;3.12;;
49384;SDS011;36795;45.028;38.968;2023-03-13T09:53:35;14.35;;;3.17;;
49384;SDS011;36795;45.028;38.968;2023-03-13T09:56:25;15.57;;;3.95;;
49384;SDS011;36795;45.028;38.968;2023-03-13T10:02:32;12.82;;;3.62;;
49384;SDS011;36795;45.028;38.968;2023-03-13T10:05:24;14.25;;;3.67;;
49384;SDS011;36795;45.028;38.968;2023-03-13T10:08:17;11.68;;;3.20;;
49384;SDS011;36795;45.028;38.968;2023-03-13T10:13:58;18.65;;;3.60;;
49384;SDS011;36795;45.028;38.968;2023-03-13T10:16:58;9.55;;;2.90;;
49384;SDS011;36795;45.028;38.968;2023-03-13T10:19:46;10.55;;;2.85;;
49384;SDS011;36795;45.028;38.968;2023-03-13T10:22:33;10.40;;;3.12;;
49384;SDS011;36795;45.028;38.968;2023-03-13T10:25:34;15.00;;;3.47;;
49384;SDS011;36795;45.028;38.968;2023-03-13T10:28:23;12.15;;;2.97;;
49384;SDS011;36795;45.028;38.968;2023-03-13T10:31:13;15.35;;;3.72;;
49384;SDS011;36795;45.028;38.968;2023-03-13T10:34:08;12.50;;;3.35;;
49384;SDS011;36795;45.028;38.968;2023-03-13T10:36:56;12.98;;;3.20;;
49384;SDS011;36795;45.028;38.968;2023-03-13T10:39:42;8.82;;;2.60;;
49384;SDS011;36795;45.028;38.968;2023-03-13T10:42:32;13.15;;;3.00;;
49384;SDS011;36795;45.028;38.968;2023-03-13T10:45:21;12.57;;;3.10;;
49384;SDS011;36795;45.028;38.968;2023-03-13T10:48:14;10.52;;;3.03;;
49384;SDS011;36795;45.028;38.968;2023-03-13T10:51:03;11.12;;;3.33;;
49384;SDS011;36795;45.028;38.968;2023-03-13T10:53:55;16.83;;;3.67;;
49384;SDS011;36795;45.028;38.968;2023-03-13T10:56:41;11.65;;;3.05;;
49384;SDS011;36795;45.028;38.968;2023-03-13T10:59:27;13.60;;;3.45;;
49384;SDS011;36795;45.028;38.968;2023-03-13T11:02:46;11.40;;;3.62;;
49384;SDS011;36795;45.028;38.968;2023-03-13T11:05:29;16.10;;;4.12;;
49384;SDS011;36795;45.028;38.968;2023-03-13T11:08:21;11.48;;;3.40;;
49384;SDS011;36795;45.028;38.968;2023-03-13T11:11:15;15.85;;;3.92;;
49384;SDS011;36795;45.028;38.968;2023-03-13T11:14:07;12.95;;;3.12;;
49384;SDS011;36795;45.028;38.968;2023-03-13T11:16:55;9.82;;;2.97;;
49384;SDS011;36795;45.028;38.968;2023-03-13T11:19:52;12.13;;;3.47;;
49384;SDS011;36795;45.028;38.968;2023-03-13T11:22:46;12.13;;;3.40;;
49384;SDS011;36795;45.028;38.968;2023-03-13T11:25:34;11.60;;;3.20;;
49384;SDS011;36795;45.028;38.968;2023-03-13T11:31:13;13.07;;;3.55;;
49384;SDS011;36795;45.028;38.968;2023-03-13T11:48:39;13.18;;;3.35;;
49384;SDS011;36795;45.028;38.968;2023-03-13T11:51:46;12.70;;;3.60;;
49384;SDS011;36795;45.028;38.968;2023-03-13T11:57:32;13.73;;;3.08;;
49384;SDS011;36795;45.028;38.968;2023-03-13T12:00:30;27.92;;;4.40;;
49384;SDS011;36795;45.028;38.968;2023-03-13T12:06:10;12.50;;;3.10;;
49384;SDS011;36795;45.028;38.968;2023-03-13T12:09:00;12.45;;;3.55;;
49384;SDS011;36795;45.028;38.968;2023-03-13T12:14:48;14.43;;;3.25;;
49384;SDS011;36795;45.028;38.968;2023-03-13T12:17:38;13.45;;;3.33;;
49384;SDS011;36795;45.028;38.968;2023-03-13T12:20:33;13.13;;;3.72;;
49384;SDS011;36795;45.028;38.968;2023-03-13T12:26:21;12.18;;;3.40;;
49384;SDS011;36795;45.028;38.968;2023-03-13T12:32:12;13.85;;;3.87;;
49384;SDS011;36795;45.028;38.968;2023-03-13T12:35:00;12.45;;;3.67;;
49384;SDS011;36795;45.028;38.968;2023-03-13T12:38:10;12.73;;;3.58;;
49384;SDS011;36795;45.028;38.968;2023-03-13T12:43:49;16.73;;;4.45;;
49384;SDS011;36795;45.028;38.968;2023-03-13T12:46:37;18.48;;;3.90;;
49384;SDS011;36795;45.028;38.968;2023-03-13T12:49:29;13.15;;;3.78;;
49384;SDS011;36795;45.028;38.968;2023-03-13T13:01:00;11.45;;;3.28;;
49384;SDS011;36795;45.028;38.968;2023-03-13T13:04:00;17.58;;;3.83;;
49384;SDS011;36795;45.028;38.968;2023-03-13T13:09:59;19.15;;;5.43;;
49384;SDS011;36795;45.028;38.968;2023-03-13T13:16:03;14.07;;;3.50;;
49384;SDS011;36795;45.028;38.968;2023-03-13T13:18:51;13.13;;;3.42;;
49384;SDS011;36795;45.028;38.968;2023-03-13T13:21:38;13.80;;;3.62;;
49384;SDS011;36795;45.028;38.968;2023-03-13T13:39:11;14.05;;;3.60;;
49384;SDS011;36795;45.028;38.968;2023-03-13T13:48:13;16.48;;;3.92;;
49384;SDS011;36795;45.028;38.968;2023-03-13T13:53:56;14.52;;;3.92;;
49384;SDS011;36795;45.028;38.968;2023-03-13T13:56:51;18.52;;;4.22;;
49384;SDS011;36795;45.028;38.968;2023-03-13T13:59:41;14.95;;;3.92;;
49384;SDS011;36795;45.028;38.968;2023-03-13T14:02:34;12.75;;;3.50;;
49384;SDS011;36795;45.028;38.968;2023-03-13T14:05:22;16.02;;;4.57;;
49384;SDS011;36795;45.028;38.968;2023-03-13T14:08:16;12.75;;;3.72;;
49384;SDS011;36795;45.028;38.968;2023-03-13T14:16:58;19.30;;;4.25;;
49384;SDS011;36795;45.028;38.968;2023-03-13T14:19:44;14.23;;;4.37;;
49384;SDS011;36795;45.028;38.968;2023-03-13T14:22:43;18.40;;;3.97;;
49384;SDS011;36795;45.028;38.968;2023-03-13T14:25:46;20.12;;;4.30;;
49384;SDS011;36795;45.028;38.968;2023-03-13T14:28:33;16.65;;;4.15;;
49384;SDS011;36795;45.028;38.968;2023-03-13T14:31:23;16.67;;;4.43;;
49384;SDS011;36795;45.028;38.968;2023-03-13T14:34:10;16.10;;;4.07;;
49384;SDS011;36795;45.028;38.968;2023-03-13T14:36:58;19.67;;;4.45;;
49384;SDS011;36795;45.028;38.968;2023-03-13T14:39:47;22.20;;;4.70;;
49384;SDS011;36795;45.028;38.968;2023-03-13T14:45:38;16.58;;;4.37;;
49384;SDS011;36795;45.028;38.968;2023-03-13T14:48:29;15.20;;;4.18;;
49384;SDS011;36795;45.028;38.968;2023-03-13T14:51:19;33.67;;;5.43;;
49384;SDS011;36795;45.028;38.968;2023-03-13T14:54:22;17.77;;;4.78;;
49384;SDS011;36795;45.028;38.968;2023-03-13T15:00:20;26.40;;;5.25;;
49384;SDS011;36795;45.028;38.968;2023-03-13T15:06:05;23.17;;;4.55;;
49384;SDS011;36795;45.028;38.968;2023-03-13T15:14:44;35.35;;;5.57;;
49384;SDS011;36795;45.028;38.968;2023-03-13T15:17:30;20.75;;;4.72;;
49384;SDS011;36795;45.028;38.968;2023-03-13T15:20:16;38.10;;;6.07;;
49384;SDS011;36795;45.028;38.968;2023-03-13T15:23:04;26.65;;;5.87;;
49384;SDS011;36795;45.028;38.968;2023-03-13T15:25:50;16.27;;;4.07;;
49384;SDS011;36795;45.028;38.968;2023-03-13T15:28:36;16.70;;;4.25;;
49384;SDS011;36795;45.028;38.968;2023-03-13T15:31:24;19.73;;;4.75;;
49384;SDS011;36795;45.028;38.968;2023-03-13T15:34:12;14.40;;;4.10;;
49384;SDS011;36795;45.028;38.968;2023-03-13T15:36:58;14.93;;;4.22;;
49384;SDS011;36795;45.028;38.968;2023-03-13T15:39:45;16.77;;;4.72;;
49384;SDS011;36795;45.028;38.968;2023-03-13T15:42:32;25.12;;;5.22;;
49384;SDS011;36795;45.028;38.968;2023-03-13T15:45:18;19.02;;;4.35;;
49384;SDS011;36795;45.028;38.968;2023-03-13T15:48:15;13.20;;;4.12;;
49384;SDS011;36795;45.028;38.968;2023-03-13T15:51:03;14.95;;;4.85;;
49384;SDS011;36795;45.028;38.968;2023-03-13T15:53:49;18.30;;;4.65;;
49384;SDS011;36795;45.028;38.968;2023-03-13T15:56:37;18.80;;;5.40;;
49384;SDS011;36795;45.028;38.968;2023-03-13T15:59:23;24.25;;;6.03;;
49384;SDS011;36795;45.028;38.968;2023-03-13T16:02:17;14.30;;;4.30;;
49384;SDS011;36795;45.028;38.968;2023-03-13T16:05:04;17.55;;;4.10;;
49384;SDS011;36795;45.028;38.968;2023-03-13T16:07:50;20.52;;;5.62;;
49384;SDS011;36795;45.028;38.968;2023-03-13T16:10:46;24.35;;;6.18;;
49384;SDS011;36795;45.028;38.968;2023-03-13T16:13:35;24.83;;;6.97;;
49384;SDS011;36795;45.028;38.968;2023-03-13T16:16:23;20.60;;;5.03;;
49384;SDS011;36795;45.028;38.968;2023-03-13T16:19:09;20.30;;;5.53;;
49384;SDS011;36795;45.028;38.968;2023-03-13T16:21:56;19.08;;;5.03;;
49384;SDS011;36795;45.028;38.968;2023-03-13T16:24:42;21.33;;;5.85;;
49384;SDS011;36795;45.028;38.968;2023-03-13T16:27:28;22.60;;;6.45;;
49384;SDS011;36795;45.028;38.968;2023-03-13T16:30:16;21.10;;;6.10;;
49384;SDS011;36795;45.028;38.968;2023-03-13T16:33:02;20.35;;;5.22;;
49384;SDS011;36795;45.028;38.968;2023-03-13T16:35:48;21.73;;;5.43;;
49384;SDS011;36795;45.028;38.968;2023-03-13T16:38:37;18.80;;;5.12;;
49384;SDS011;36795;45.028;38.968;2023-03-13T16:41:23;16.95;;;5.22;;
49384;SDS011;36795;45.028;38.968;2023-03-13T16:44:11;18.20;;;5.35;;
49384;SDS011;36795;45.028;38.968;2023-03-13T16:46:57;21.08;;;5.55;;
49384;SDS011;36795;45.028;38.968;2023-03-13T16:49:44;20.05;;;5.50;;
49384;SDS011;36795;45.028;38.968;2023-03-13T16:52:30;24.37;;;5.87;;
49384;SDS011;36795;45.028;38.968;2023-03-13T16:55:17;20.23;;;6.75;;
49384;SDS011;36795;45.028;38.968;2023-03-13T16:58:03;20.98;;;6.60;;
49384;SDS011;36795;45.028;38.968;2023-03-13T17:00:50;28.35;;;10.20;;
49384;SDS011;36795;45.028;38.968;2023-03-13T17:03:36;22.17;;;7.62;;
49384;SDS011;36795;45.028;38.968;2023-03-13T17:06:23;22.02;;;7.80;;
49384;SDS011;36795;45.028;38.968;2023-03-13T17:09:10;20.58;;;7.97;;
49384;SDS011;36795;45.028;38.968;2023-03-13T17:11:57;24.08;;;8.25;;
49384;SDS011;36795;45.028;38.968;2023-03-13T17:14:43;22.45;;;8.75;;
49384;SDS011;36795;45.028;38.968;2023-03-13T17:17:29;23.30;;;8.55;;
49384;SDS011;36795;45.028;38.968;2023-03-13T17:20:20;25.15;;;8.98;;
49384;SDS011;36795;45.028;38.968;2023-03-13T17:23:07;23.15;;;9.00;;
49384;SDS011;36795;45.028;38.968;2023-03-13T17:25:54;26.77;;;8.55;;
49384;SDS011;36795;45.028;38.968;2023-03-13T17:28:40;25.45;;;10.18;;
49384;SDS011;36795;45.028;38.968;2023-03-13T17:31:27;23.27;;;9.25;;
49384;SDS011;36795;45.028;38.968;2023-03-13T17:34:14;22.52;;;8.45;;
49384;SDS011;36795;45.028;38.968;2023-03-13T17:37:00;30.05;;;9.80;;
49384;SDS011;36795;45.028;38.968;2023-03-13T17:39:49;25.05;;;9.40;;
49384;SDS011;36795;45.028;38.968;2023-03-13T17:42:35;27.87;;;10.45;;
49384;SDS011;36795;45.028;38.968;2023-03-13T17:45:21;24.55;;;10.20;;
49384;SDS011;36795;45.028;38.968;2023-03-13T17:48:10;25.20;;;9.45;;
49384;SDS011;36795;45.028;38.968;2023-03-13T17:50:57;28.02;;;9.68;;
49384;SDS011;36795;45.028;38.968;2023-03-13T17:53:43;23.30;;;8.38;;
49384;SDS011;36795;45.028;38.968;2023-03-13T17:56:31;23.75;;;8.77;;
49384;SDS011;36795;45.028;38.968;2023-03-13T17:59:20;27.25;;;9.43;;
49384;SDS011;36795;45.028;38.968;2023-03-13T18:02:13;23.92;;;8.77;;
49384;SDS011;36795;45.028;38.968;2023-03-13T18:05:00;23.73;;;8.53;;